createdAt,value
2022-12-03T00:01:45.390Z,31.45
2022-12-03T00:06:47.358Z,21.50
2022-12-03T00:11:49.279Z,29.98
2022-12-03T00:16:51.246Z,34.35
2022-12-03T00:26:55.044Z,25.20
2022-12-03T00:31:57.009Z,31.77
2022-12-03T00:36:58.928Z,27.42
2022-12-03T00:42:00.816Z,35.47
2022-12-03T00:47:02.844Z,29.08
2022-12-03T00:52:04.828Z,28.02
2022-12-03T00:57:06.675Z,26.60
2022-12-03T01:02:08.763Z,31.40
2022-12-03T01:12:12.388Z,28.92
2022-12-03T01:17:14.285Z,23.83
2022-12-03T01:22:16.263Z,30.90
2022-12-03T01:27:18.236Z,22.38
2022-12-03T01:32:20.387Z,33.63
2022-12-03T01:37:24.336Z,23.65
2022-12-03T01:42:28.431Z,35.25
2022-12-03T01:47:36.972Z,32.65
2022-12-03T01:52:38.774Z,32.17
2022-12-03T01:57:48.604Z,33.70
2022-12-03T02:02:55.769Z,23.10
2022-12-03T02:07:57.880Z,31.08
2022-12-03T02:13:04.982Z,28.17
2022-12-03T02:18:08.274Z,25.70
2022-12-03T02:23:28.669Z,27.52
2022-12-03T02:28:30.576Z,26.95
2022-12-03T02:33:32.573Z,30.40
2022-12-03T02:38:34.401Z,28.60
2022-12-03T02:43:36.684Z,23.05
2022-12-03T02:48:39.119Z,29.40
2022-12-03T02:53:42.938Z,28.50
2022-12-03T02:58:45.327Z,29.27
2022-12-03T03:03:47.625Z,24.90
2022-12-03T03:08:49.513Z,26.85
2022-12-03T03:13:51.578Z,24.25
2022-12-03T03:23:55.103Z,29.70
2022-12-03T03:28:56.950Z,26.05
2022-12-03T03:33:58.969Z,32.78
2022-12-03T03:44:03.787Z,28.70
2022-12-03T03:49:05.764Z,26.50
2022-12-03T03:59:09.518Z,26.63
2022-12-03T04:09:20.664Z,26.45
2022-12-03T04:14:22.740Z,23.63
2022-12-03T04:24:26.217Z,23.95
2022-12-03T04:29:28.018Z,27.10
2022-12-03T04:34:30.152Z,32.22
2022-12-03T04:39:31.977Z,29.17
2022-12-03T04:44:34.145Z,27.73
2022-12-03T04:49:37.265Z,28.15
2022-12-03T04:54:39.471Z,28.20
2022-12-03T04:59:41.269Z,27.80
2022-12-03T05:04:43.222Z,25.42
2022-12-03T05:14:47.891Z,23.77
2022-12-03T05:24:51.800Z,19.42
2022-12-03T05:29:54.056Z,28.52
2022-12-03T05:34:56.684Z,30.95
2022-12-03T05:39:58.823Z,27.27
2022-12-03T05:45:00.680Z,24.35
2022-12-03T05:50:02.594Z,25.85
2022-12-03T05:55:05.606Z,26.67
2022-12-03T06:00:09.860Z,22.98
2022-12-03T06:05:12.186Z,23.05
2022-12-03T06:10:15.283Z,22.50
2022-12-03T06:15:17.395Z,23.85
2022-12-03T06:25:21.507Z,18.37
2022-12-03T06:35:25.199Z,25.10
2022-12-03T06:40:27.088Z,26.08
2022-12-03T06:45:29.113Z,25.60
2022-12-03T06:50:31.141Z,30.58
2022-12-03T06:55:33.992Z,29.85
2022-12-03T07:00:35.885Z,35.40
2022-12-03T07:05:37.837Z,30.38
2022-12-03T07:10:39.704Z,29.73
2022-12-03T07:15:41.729Z,28.13
2022-12-03T07:25:45.472Z,25.48
2022-12-03T07:30:47.510Z,33.88
2022-12-03T07:35:49.337Z,29.45
2022-12-03T07:40:52.519Z,28.63
2022-12-03T07:45:54.415Z,30.77
2022-12-03T07:50:56.256Z,31.15
2022-12-03T07:55:58.229Z,32.85
2022-12-03T08:01:00.186Z,30.77
2022-12-03T08:06:02.227Z,33.53
2022-12-03T08:11:05.555Z,37.22
2022-12-03T08:16:19.924Z,36.25
2022-12-03T08:21:23.146Z,35.30
2022-12-03T08:26:27.995Z,37.58
2022-12-03T08:31:33.617Z,47.83
2022-12-03T08:36:36.821Z,39.45
2022-12-03T08:41:38.939Z,34.28
2022-12-03T08:46:40.781Z,32.72
2022-12-03T08:51:42.563Z,31.02
2022-12-03T08:56:44.428Z,30.48
2022-12-03T09:01:46.870Z,26.67
2022-12-03T09:06:49.505Z,26.13
2022-12-03T09:11:52.080Z,27.40
2022-12-03T09:16:54.107Z,28.75
2022-12-03T09:21:55.963Z,30.48
2022-12-03T09:26:57.888Z,25.58
2022-12-03T09:31:59.763Z,30.52
2022-12-03T09:37:01.837Z,30.38
2022-12-03T09:42:03.774Z,28.05
2022-12-03T09:47:05.724Z,28.40
2022-12-03T09:52:07.800Z,30.65
2022-12-03T09:57:10.114Z,32.22
2022-12-03T10:02:21.425Z,26.13
2022-12-03T10:07:24.484Z,26.85
2022-12-03T10:12:26.343Z,28.08
2022-12-03T10:17:28.443Z,32.57
2022-12-03T10:22:30.499Z,24.75
2022-12-03T10:27:32.554Z,26.67
2022-12-03T10:32:47.816Z,28.55
2022-12-03T10:38:03.563Z,28.88
2022-12-03T10:43:18.480Z,26.40
2022-12-03T10:48:21.862Z,30.15
2022-12-03T10:53:26.998Z,26.05
2022-12-03T10:58:31.365Z,27.55
2022-12-03T11:03:36.529Z,27.63
2022-12-03T11:08:38.685Z,25.95
2022-12-03T11:13:40.526Z,25.67
2022-12-03T11:18:42.637Z,28.10
2022-12-03T11:23:44.644Z,22.67
2022-12-03T11:28:46.574Z,23.05
2022-12-03T11:33:48.408Z,25.45
2022-12-03T11:38:53.578Z,26.20
2022-12-03T11:43:55.622Z,27.75
2022-12-03T11:48:58.986Z,27.43
2022-12-03T11:54:00.832Z,26.25
2022-12-03T11:59:03.970Z,21.80
2022-12-03T12:04:06.310Z,27.98
2022-12-03T12:09:08.542Z,30.38
2022-12-03T12:14:11.956Z,29.75
2022-12-03T12:19:35.673Z,27.55
2022-12-03T12:24:40.622Z,29.45
2022-12-03T12:29:43.574Z,30.88
2022-12-03T12:34:49.322Z,28.52
2022-12-03T12:39:53.483Z,31.17
2022-12-03T12:45:00.100Z,33.17
2022-12-03T12:50:02.111Z,24.58
2022-12-03T12:55:07.262Z,30.30
2022-12-03T13:00:20.602Z,31.95
2022-12-03T13:05:23.325Z,28.83
2022-12-03T13:10:40.944Z,31.75
2022-12-03T13:20:50.951Z,30.35
2022-12-03T13:26:09.259Z,28.15
2022-12-03T13:31:21.760Z,29.63
2022-12-03T13:36:29.856Z,27.30
2022-12-03T13:41:31.725Z,28.90
2022-12-03T13:46:33.662Z,22.17
2022-12-03T13:56:37.877Z,25.92
2022-12-03T14:01:39.891Z,22.92
2022-12-03T14:06:41.979Z,22.08
2022-12-03T14:11:44.255Z,22.63
2022-12-03T14:16:46.164Z,19.02
2022-12-03T14:21:48.245Z,19.45
2022-12-03T14:26:50.156Z,19.75
2022-12-03T14:31:52.227Z,16.75
2022-12-03T14:36:54.538Z,18.48
2022-12-03T14:41:56.576Z,19.85
2022-12-03T14:46:58.472Z,20.35
2022-12-03T14:52:00.232Z,13.27
2022-12-03T14:57:02.264Z,16.33
2022-12-03T15:02:05.527Z,17.40
2022-12-03T15:07:08.497Z,17.35
2022-12-03T15:12:10.412Z,20.30
2022-12-03T15:17:12.689Z,20.20
2022-12-03T15:22:14.587Z,22.08
2022-12-03T15:27:16.476Z,22.70
2022-12-03T15:32:18.296Z,15.43
2022-12-03T15:37:20.602Z,16.60
2022-12-03T15:42:22.475Z,24.38
2022-12-03T15:47:24.499Z,24.07
2022-12-03T15:52:26.392Z,23.88
2022-12-03T15:57:28.258Z,24.70
2022-12-03T16:02:30.093Z,15.93
2022-12-03T16:07:32.556Z,19.15
2022-12-03T16:12:34.477Z,18.80
2022-12-03T16:17:36.362Z,21.70
2022-12-03T16:22:38.274Z,22.83
2022-12-03T16:27:40.209Z,21.30
2022-12-03T16:32:42.108Z,18.85
2022-12-03T16:37:43.957Z,20.00
2022-12-03T16:42:45.798Z,23.25
2022-12-03T16:47:47.733Z,24.63
2022-12-03T16:52:49.739Z,18.87
2022-12-03T16:57:51.603Z,24.42
2022-12-03T17:02:53.810Z,19.88
2022-12-03T17:07:55.722Z,24.00
2022-12-03T17:13:12.964Z,18.75
2022-12-03T17:18:14.725Z,16.40
2022-12-03T17:23:16.566Z,12.73
2022-12-03T17:28:18.378Z,12.20
2022-12-03T17:33:20.174Z,12.80
2022-12-03T17:38:22.178Z,10.60
2022-12-03T17:43:24.155Z,10.25
2022-12-03T17:48:29.134Z,12.80
2022-12-03T17:53:31.100Z,11.82
2022-12-03T17:58:34.693Z,11.93
2022-12-03T18:03:37.144Z,13.65
2022-12-03T18:08:39.433Z,14.73
2022-12-03T18:13:42.383Z,17.10
2022-12-03T18:18:44.223Z,10.25
2022-12-03T18:23:46.216Z,13.60
2022-12-03T18:28:48.012Z,9.98
2022-12-03T18:33:51.158Z,15.80
2022-12-03T18:38:53.842Z,11.00
2022-12-03T18:43:57.244Z,14.00
2022-12-03T18:49:02.683Z,14.48
2022-12-03T18:54:05.038Z,13.13
2022-12-03T19:04:10.031Z,14.10
2022-12-03T19:09:11.857Z,10.57
2022-12-03T19:14:13.648Z,14.83
2022-12-03T19:19:15.584Z,15.37
2022-12-03T19:24:25.565Z,13.32
2022-12-03T19:29:27.764Z,18.00
2022-12-03T19:34:29.503Z,13.77
2022-12-03T19:39:31.394Z,14.77
2022-12-03T19:44:33.480Z,16.75
2022-12-03T19:49:35.567Z,16.50
2022-12-03T19:54:37.405Z,14.15
2022-12-03T19:59:39.268Z,11.55
2022-12-03T20:04:41.146Z,15.55
2022-12-03T20:09:44.189Z,17.05
2022-12-03T20:14:46.036Z,14.73
2022-12-03T20:19:48.025Z,14.00
2022-12-03T20:24:49.856Z,15.80
2022-12-03T20:29:51.865Z,19.83
2022-12-03T20:34:53.930Z,15.38
2022-12-03T20:39:56.159Z,13.40
2022-12-03T20:49:59.936Z,14.43
2022-12-03T20:55:01.840Z,18.67
2022-12-03T21:00:04.169Z,13.48
2022-12-03T21:05:06.703Z,23.13
2022-12-03T21:15:10.677Z,18.55
2022-12-03T21:20:16.603Z,17.65
2022-12-03T21:25:21.279Z,18.38
2022-12-03T21:30:23.407Z,17.30
2022-12-03T21:35:25.566Z,18.85
2022-12-03T21:40:27.447Z,21.08
2022-12-03T21:45:29.304Z,19.13
2022-12-03T21:50:31.161Z,16.47
2022-12-03T21:55:33.076Z,20.17
2022-12-03T22:00:35.149Z,17.90
2022-12-03T22:05:39.739Z,16.17
2022-12-03T22:10:41.595Z,16.80
2022-12-03T22:15:43.579Z,16.77
2022-12-03T22:20:45.421Z,14.95
2022-12-03T22:25:47.277Z,16.20
2022-12-03T22:30:49.191Z,17.00
2022-12-03T22:35:58.178Z,17.27
2022-12-03T22:41:00.214Z,16.33
2022-12-03T22:46:02.099Z,19.58
2022-12-03T22:51:04.317Z,19.00
2022-12-03T22:56:06.596Z,18.98
2022-12-03T23:01:08.611Z,18.55
2022-12-03T23:06:11.256Z,19.38
2022-12-03T23:11:13.137Z,19.20
2022-12-03T23:16:23.374Z,18.43
2022-12-03T23:21:29.890Z,18.00
2022-12-03T23:26:34.848Z,19.42
2022-12-03T23:31:36.754Z,18.58
2022-12-03T23:36:38.630Z,17.73
2022-12-03T23:41:40.479Z,16.63
2022-12-03T23:46:42.425Z,16.37
2022-12-03T23:51:44.477Z,15.63
2022-12-03T23:56:46.291Z,16.58
